Главная страница
METAR-TAF:

METAR-TAF

Аэропорты :

Кишинёв, Молдавия

широта: 46-55-40N, долгота: 028-55-51E, высота над уровнем моря: 122 м

Текущие метеонаблюдения

Эта сводка был подготовлена 17 минут назад, в 17:30 UTC
Ветер 9 Узел от западно-северо-западный
Температура 17°C
Влажность 42%
Давление 1015 hPa
Видимость 10 км и более
Нет облачности ниже 1500 м, и нет кучево-дождевой облачности

METAR: LUKK 281730Z 30009KT CAVOK 17/04 Q1015 R26/D NOSIG

Время: 20:47 (17:47 UTC)

Прогноз

Эта сводка был подготовлена 27 минут назад, в 17:20 UTC
Прогноз действительный с 28-го 18 UTC до 29-го 18 UTC
Ветер 10 Узел от западно-северо-западный
Видимость 10 км и более
Нет облачности ниже 1500 м, и нет кучево-дождевой облачности
изменения
С 29-го 01 UTC до 29-го 03 UTC
Ветер 8 Узел от юго-западный
Вероятность 40% :
временами
С 29-го 01 UTC до 29-го 05 UTC
Видимость: 3000 м
дымка

TAF: LUKK 281720Z 2818/2918 30010KT CAVOK BECMG 2901/2903 23008KT PROB40 TEMPO 2901/2905 3000 BR

Метеонаблюдения и прогнозы для более 4000 аэропортов (сводки METAR и TAF).

Имеющиеся станции представлены на карте желтыми и красными точками.

Чтобы увидеть название станции, наведите на нее мышь.

Затем щелкните, чтобы увидеть метеонаблюдения и метеопрогнозы.

Управление картой: чтобы увеличить масштаб, щелкните зеленые кнопки с черным крестиком; чтобы уменьшить масштаб, щелкните зеленую кнопку с тире; для просмотра соседних карт щелкайте зеленые стрелки.


METAR-TAF: